Time;durP1;ratioP1;P1;durP2;ratioP2;P2;SDS_P1;SDS_P2;PMS_P1;PMS_P2;Temp;Humidity;BMP_temperature;BMP_pressure;BME280_temperature;BME280_humidity;BME280_pressure;Samples;Min_cycle;Max_cycle;Signal;HPM_P1;HPM_P2
2021/09/29 00:00:06;;;;;;;2.28;0.73;;;21.10;83.60;;;;;;5012509;28;20029;-77
2021/09/29 00:02:32;;;;;;;2.30;0.80;;;21.10;83.50;;;;;;5012168;28;20026;-77
2021/09/29 00:04:58;;;;;;;3.58;0.82;;;21.10;83.40;;;;;;5012012;28;20018;-77
2021/09/29 00:07:23;;;;;;;4.55;0.90;;;21.00;83.30;;;;;;5027971;28;20046;-77
2021/09/29 00:09:49;;;;;;;4.15;1.00;;;21.10;83.30;;;;;;5012578;28;20390;-76
2021/09/29 00:12:15;;;;;;;2.95;0.77;;;21.00;83.10;;;;;;5012055;28;20504;-76
2021/09/29 00:14:41;;;;;;;2.20;0.77;;;21.00;83.00;;;;;;5012084;28;20024;-77
2021/09/29 00:17:06;;;;;;;3.35;0.80;;;21.00;82.90;;;;;;5011981;28;20030;-76
2021/09/29 00:19:32;;;;;;;2.42;0.60;;;21.00;82.80;;;;;;5026936;28;20563;-76
2021/09/29 00:21:58;;;;;;;2.80;0.50;;;21.00;82.70;;;;;;5012217;28;20057;-77
2021/09/29 00:24:23;;;;;;;1.25;0.60;;;21.00;82.60;;;;;;5012503;28;20052;-77
2021/09/29 00:26:49;;;;;;;1.85;0.70;;;21.00;82.50;;;;;;5012155;28;20044;-76
2021/09/29 00:29:15;;;;;;;4.05;0.75;;;21.00;82.50;;;;;;5012110;28;20022;-76
2021/09/29 00:31:40;;;;;;;2.58;0.65;;;21.00;82.40;;;;;;5012226;28;20105;-77
2021/09/29 00:34:12;;;;;;;2.22;0.70;;;21.00;82.30;;;;;;5011452;28;20021;-76
2021/09/29 00:36:43;;;;;;;1.83;0.70;;;20.90;82.10;;;;;;5011522;28;20065;-77
2021/09/29 00:39:10;;;;;;;2.90;0.70;;;20.90;82.00;;;;;;5012251;28;20021;-77
2021/09/29 00:41:36;;;;;;;1.83;0.60;;;20.90;82.00;;;;;;5011986;28;20076;-76
2021/09/29 00:44:02;;;;;;;3.33;0.70;;;20.90;81.80;;;;;;5026696;28;20117;-76
2021/09/29 00:46:28;;;;;;;3.05;0.90;;;20.90;81.70;;;;;;5011312;28;20083;-77
2021/09/29 00:48:54;;;;;;;3.22;0.60;;;20.90;81.60;;;;;;5011375;28;20492;-76
2021/09/29 00:51:19;;;;;;;2.05;0.55;;;20.90;81.60;;;;;;5011815;28;20087;-76
2021/09/29 00:53:47;;;;;;;2.13;0.77;;;20.90;81.50;;;;;;5026331;28;20026;-76
2021/09/29 00:56:14;;;;;;;3.17;0.70;;;20.90;81.40;;;;;;5011537;28;20022;-76
2021/09/29 00:58:39;;;;;;;2.97;0.60;;;20.90;81.20;;;;;;5010192;28;20057;-76
2021/09/29 01:01:05;;;;;;;4.22;1.27;;;20.90;81.10;;;;;;5011547;28;20489;-75
2021/09/29 01:03:31;;;;;;;2.90;0.80;;;20.90;80.90;;;;;;5010916;28;20034;-75
2021/09/29 01:06:02;;;;;;;3.25;0.68;;;20.90;80.90;;;;;;5011282;28;20577;-76
2021/09/29 01:08:41;;;;;;;2.28;0.60;;;20.90;80.80;;;;;;5011493;28;20026;-75
2021/09/29 01:11:30;;;;;;;4.97;0.90;;;20.80;81.50;;;;;;5026514;28;20113;-77
2021/09/29 01:14:02;;;;;;;2.80;0.75;;;20.80;80.60;;;;;;5001640;28;20038;-77
2021/09/29 01:16:30;;;;;;;1.80;0.60;;;20.80;80.40;;;;;;5009678;28;20389;-76
2021/09/29 01:18:58;;;;;;;5.00;0.88;;;20.80;80.30;;;;;;5011195;28;20512;-75
2021/09/29 01:21:30;;;;;;;2.53;1.02;;;20.80;80.30;;;;;;5011671;28;20437;-77
2021/09/29 01:24:20;;;;;;;3.03;0.98;;;20.80;80.20;;;;;;5011345;28;20024;-78
2021/09/29 01:26:46;;;;;;;3.08;0.68;;;20.80;80.00;;;;;;5010988;28;20489;-77
2021/09/29 01:29:15;;;;;;;2.80;0.80;;;20.80;80.10;;;;;;5011156;28;20448;-76
2021/09/29 01:31:42;;;;;;;2.75;0.80;;;20.80;80.00;;;;;;5025654;28;20021;-75
2021/09/29 01:34:09;;;;;;;3.67;0.80;;;20.80;80.00;;;;;;5011188;28;20018;-78
2021/09/29 01:36:35;;;;;;;2.65;0.65;;;20.80;79.80;;;;;;5010907;28;20080;-78
2021/09/29 01:39:04;;;;;;;2.90;0.77;;;20.80;79.70;;;;;;5011233;28;20022;-78
2021/09/29 01:41:31;;;;;;;3.67;0.70;;;20.80;79.60;;;;;;5011125;28;20513;-78
2021/09/29 01:43:58;;;;;;;2.20;0.65;;;20.80;79.60;;;;;;5010506;28;20032;-77
2021/09/29 01:46:25;;;;;;;4.13;1.33;;;20.80;79.60;;;;;;5011196;28;20537;-77
2021/09/29 01:48:54;;;;;;;2.47;0.75;;;20.80;79.50;;;;;;5011012;28;20065;-77
2021/09/29 01:51:20;;;;;;;3.40;0.90;;;20.80;79.30;;;;;;5010705;28;20033;-77
2021/09/29 01:53:49;;;;;;;2.75;0.70;;;20.80;79.30;;;;;;5010485;28;20033;-77
2021/09/29 01:56:17;;;;;;;2.22;0.60;;;20.70;79.20;;;;;;5011194;28;20034;-77
2021/09/29 01:58:42;;;;;;;3.38;0.90;;;20.70;79.20;;;;;;5011859;28;20121;-76
2021/09/29 02:01:08;;;;;;;2.97;0.90;;;20.70;79.10;;;;;;5014710;28;20100;-76
2021/09/29 02:03:34;;;;;;;2.72;0.85;;;20.70;79.10;;;;;;5014555;28;20038;-76
2021/09/29 02:06:00;;;;;;;4.95;0.98;;;20.70;78.90;;;;;;5014115;28;20393;-76
2021/09/29 02:08:25;;;;;;;5.40;0.80;;;20.70;79.00;;;;;;5014150;28;20034;-76
2021/09/29 02:10:51;;;;;;;2.17;0.65;;;20.70;79.00;;;;;;5015370;28;20030;-76
2021/09/29 02:13:17;;;;;;;3.08;0.80;;;20.70;78.90;;;;;;5014688;28;20516;-76
2021/09/29 02:15:42;;;;;;;1.67;0.50;;;20.70;78.90;;;;;;5014256;28;20110;-76
2021/09/29 02:18:08;;;;;;;2.05;0.63;;;20.70;78.90;;;;;;5014560;28;20033;-75
2021/09/29 02:20:34;;;;;;;3.95;1.00;;;20.70;78.90;;;;;;5014053;28;20029;-76
2021/09/29 02:22:59;;;;;;;4.00;0.60;;;20.70;78.90;;;;;;5014556;28;20116;-76
2021/09/29 02:25:26;;;;;;;2.30;0.63;;;20.70;78.90;;;;;;5014337;28;20030;-79
2021/09/29 02:27:51;;;;;;;2.05;0.60;;;20.70;78.90;;;;;;5014997;28;20041;-77
2021/09/29 02:30:17;;;;;;;3.75;0.70;;;20.60;78.80;;;;;;5029760;28;20026;-77
2021/09/29 02:32:43;;;;;;;2.42;0.70;;;20.60;78.80;;;;;;5014449;28;20032;-77
2021/09/29 02:35:10;;;;;;;2.55;1.02;;;20.60;78.60;;;;;;5013724;28;20104;-76
2021/09/29 02:37:36;;;;;;;2.72;0.70;;;20.60;78.70;;;;;;5013599;28;20029;-77
2021/09/29 02:40:04;;;;;;;2.30;0.75;;;20.60;78.70;;;;;;5014474;28;20022;-76
2021/09/29 02:42:30;;;;;;;2.88;0.70;;;20.60;78.60;;;;;;5029528;28;20116;-77
2021/09/29 02:44:55;;;;;;;2.00;0.80;;;20.60;78.60;;;;;;5014146;28;20465;-76
2021/09/29 02:47:21;;;;;;;3.08;1.00;;;20.60;78.60;;;;;;5029462;28;20042;-77
2021/09/29 02:49:47;;;;;;;4.30;1.08;;;20.60;78.50;;;;;;5013454;28;20044;-75
2021/09/29 02:52:12;;;;;;;3.30;0.95;;;20.60;78.60;;;;;;5013994;28;20080;-77
2021/09/29 02:54:38;;;;;;;4.03;0.82;;;20.60;78.50;;;;;;5013522;28;20033;-76
2021/09/29 02:57:04;;;;;;;3.17;0.70;;;20.60;78.60;;;;;;5013583;28;20037;-76
2021/09/29 02:59:30;;;;;;;1.88;0.60;;;20.60;78.50;;;;;;5013706;28;20026;-77
2021/09/29 03:01:55;;;;;;;2.90;0.70;;;20.60;78.50;;;;;;5013712;28;20029;-76
2021/09/29 03:04:21;;;;;;;2.72;0.70;;;20.60;78.60;;;;;;5013855;28;20034;-77
2021/09/29 03:06:46;;;;;;;1.88;0.60;;;20.50;78.40;;;;;;5013076;28;20065;-77
2021/09/29 03:09:12;;;;;;;1.55;0.57;;;20.50;78.40;;;;;;5013323;28;20108;-77
2021/09/29 03:11:38;;;;;;;3.47;0.80;;;20.50;78.40;;;;;;5012801;28;20030;-78
2021/09/29 03:14:03;;;;;;;2.70;0.70;;;20.50;78.40;;;;;;5013526;28;20048;-77
2021/09/29 03:16:29;;;;;;;2.95;0.90;;;20.50;78.40;;;;;;5012839;28;20105;-77
2021/09/29 03:18:55;;;;;;;2.53;0.98;;;20.50;78.40;;;;;;5013861;28;20064;-77
2021/09/29 03:21:21;;;;;;;1.73;0.60;;;20.50;78.40;;;;;;5013835;28;20113;-77
2021/09/29 03:23:47;;;;;;;1.77;0.60;;;20.50;78.50;;;;;;5013153;28;20065;-77
2021/09/29 03:26:12;;;;;;;2.03;0.50;;;20.50;78.50;;;;;;5013496;28;20037;-78
2021/09/29 03:28:38;;;;;;;2.47;0.70;;;20.50;78.50;;;;;;5012372;28;20038;-77
2021/09/29 03:31:04;;;;;;;1.65;0.60;;;20.50;78.40;;;;;;5028611;28;20068;-77
2021/09/29 03:33:29;;;;;;;3.30;0.60;;;20.50;78.40;;;;;;5012795;28;20030;-77
2021/09/29 03:35:55;;;;;;;2.25;0.77;;;20.50;78.50;;;;;;5013344;28;20508;-77
2021/09/29 03:38:21;;;;;;;3.80;1.13;;;20.50;78.40;;;;;;5012681;28;20026;-76
2021/09/29 03:40:46;;;;;;;4.53;1.05;;;20.50;78.30;;;;;;5013084;28;20026;-75
2021/09/29 03:43:12;;;;;;;3.75;0.68;;;20.50;78.40;;;;;;5013292;28;20037;-77
2021/09/29 03:45:38;;;;;;;2.17;0.57;;;20.50;78.40;;;;;;5027631;28;20026;-77
2021/09/29 03:48:04;;;;;;;3.42;0.90;;;20.50;78.40;;;;;;5012439;28;20045;-78
2021/09/29 03:50:30;;;;;;;3.83;0.77;;;20.50;78.40;;;;;;5027744;28;20026;-77
2021/09/29 03:52:55;;;;;;;2.15;0.55;;;20.50;78.40;;;;;;5013362;28;20101;-77
2021/09/29 03:55:22;;;;;;;3.08;0.80;;;20.40;78.30;;;;;;5012866;28;20033;-77
2021/09/29 03:57:48;;;;;;;4.45;0.60;;;20.40;78.30;;;;;;5012324;28;21191;-74
2021/09/29 04:00:14;;;;;;;2.58;0.70;;;20.40;78.30;;;;;;5011458;28;20033;-77
2021/09/29 04:02:41;;;;;;;2.20;0.73;;;20.40;78.20;;;;;;5038817;28;20022;-76
2021/09/29 04:05:07;;;;;;;3.55;0.65;;;20.50;78.30;;;;;;5010836;28;20018;-76
2021/09/29 04:07:33;;;;;;;1.88;0.60;;;20.40;78.30;;;;;;5012256;28;20125;-75
2021/09/29 04:09:59;;;;;;;3.15;0.57;;;20.40;78.30;;;;;;5012467;28;20105;-76
2021/09/29 04:12:24;;;;;;;2.80;0.60;;;20.40;78.30;;;;;;5012957;28;20037;-77
2021/09/29 04:14:53;;;;;;;3.33;0.63;;;20.40;78.30;;;;;;5012203;28;20029;-76
2021/09/29 04:17:19;;;;;;;5.53;1.00;;;20.40;78.30;;;;;;5012386;28;20394;-76
2021/09/29 04:19:45;;;;;;;2.15;0.50;;;20.40;78.30;;;;;;5011807;28;20505;-76
2021/09/29 04:22:11;;;;;;;2.65;0.98;;;20.40;78.20;;;;;;5012718;28;20497;-76
2021/09/29 04:24:39;;;;;;;3.53;0.73;;;20.40;78.30;;;;;;5011654;28;20109;-76
2021/09/29 04:27:06;;;;;;;2.22;0.60;;;20.40;78.30;;;;;;5012249;28;20048;-76
2021/09/29 04:29:32;;;;;;;2.05;0.50;;;20.40;78.30;;;;;;5011329;28;20109;-76
2021/09/29 04:31:58;;;;;;;2.05;0.50;;;20.40;78.30;;;;;;5011896;28;20510;-76
2021/09/29 04:34:23;;;;;;;1.95;0.43;;;20.40;78.20;;;;;;5012209;28;20295;-76
2021/09/29 04:36:49;;;;;;;1.30;0.40;;;20.40;78.20;;;;;;5026996;28;20036;-76
2021/09/29 04:39:15;;;;;;;2.65;0.68;;;20.40;78.30;;;;;;5011979;28;20104;-76
2021/09/29 04:41:41;;;;;;;3.50;0.85;;;20.40;78.30;;;;;;5012026;28;20485;-76
2021/09/29 04:44:07;;;;;;;2.65;0.68;;;20.40;78.30;;;;;;5011827;28;20055;-76
2021/09/29 04:46:33;;;;;;;2.40;0.57;;;20.30;78.30;;;;;;5011661;28;20113;-76
2021/09/29 04:48:59;;;;;;;3.25;0.82;;;20.30;78.30;;;;;;5011972;28;20109;-76
2021/09/29 04:51:24;;;;;;;3.33;1.10;;;20.30;78.30;;;;;;5012537;28;20205;-76
2021/09/29 04:53:50;;;;;;;3.25;0.60;;;20.30;78.30;;;;;;5011494;28;20026;-77
2021/09/29 04:56:15;;;;;;;2.67;0.40;;;20.30;78.30;;;;;;5027285;28;20022;-77
2021/09/29 04:58:43;;;;;;;1.50;0.60;;;20.30;78.40;;;;;;5011124;28;20421;-77
2021/09/29 05:01:10;;;;;;;2.10;0.60;;;20.40;78.40;;;;;;5026458;28;20030;-77
2021/09/29 05:03:36;;;;;;;2.38;0.57;;;20.40;78.40;;;;;;5011049;28;20030;-77
2021/09/29 05:06:02;;;;;;;3.25;0.70;;;20.30;78.40;;;;;;5011071;28;20437;-77
2021/09/29 05:08:30;;;;;;;1.73;0.63;;;20.30;78.40;;;;;;5011021;28;20049;-76
2021/09/29 05:11:00;;;;;;;2.25;0.47;;;20.30;78.40;;;;;;5011668;28;20100;-76
2021/09/29 05:13:31;;;;;;;1.65;0.50;;;20.30;78.40;;;;;;5011031;28;20038;-76
2021/09/29 05:15:58;;;;;;;3.55;0.60;;;20.30;78.50;;;;;;5011473;28;20105;-77
2021/09/29 05:18:24;;;;;;;1.25;0.43;;;20.30;78.40;;;;;;5011823;28;20088;-76
2021/09/29 05:20:50;;;;;;;2.92;0.88;;;20.30;78.40;;;;;;5003244;28;20492;-77
2021/09/29 05:23:16;;;;;;;1.40;0.40;;;20.30;78.40;;;;;;5011705;28;20033;-77
2021/09/29 05:25:41;;;;;;;2.15;0.57;;;20.30;78.40;;;;;;5010909;28;20034;-77
2021/09/29 05:28:10;;;;;;;1.58;0.50;;;20.30;78.40;;;;;;5011452;28;20500;-77
2021/09/29 05:30:36;;;;;;;2.25;0.52;;;20.30;78.40;;;;;;5010330;28;20113;-76
2021/09/29 05:33:02;;;;;;;0.52;0.28;;;20.30;78.40;;;;;;5010477;28;20105;-76
2021/09/29 05:35:28;;;;;;;1.90;0.50;;;20.30;78.40;;;;;;5010586;28;20155;-76
2021/09/29 05:37:53;;;;;;;2.17;0.40;;;20.30;78.40;;;;;;5010797;28;20026;-77
2021/09/29 05:40:19;;;;;;;1.33;0.40;;;20.30;78.30;;;;;;5010092;28;20044;-76
2021/09/29 05:42:44;;;;;;;1.30;0.40;;;20.30;78.30;;;;;;5010228;28;20018;-76
2021/09/29 05:45:12;;;;;;;1.95;0.63;;;20.30;78.30;;;;;;5010281;28;20104;-76
2021/09/29 05:47:38;;;;;;;1.75;0.50;;;20.20;78.20;;;;;;5010653;28;20027;-76
2021/09/29 05:50:04;;;;;;;2.33;0.50;;;20.20;78.20;;;;;;5026394;28;20030;-76
2021/09/29 05:52:30;;;;;;;1.10;0.40;;;20.30;78.30;;;;;;5010839;28;20104;-75
2021/09/29 05:54:56;;;;;;;4.95;0.60;;;20.20;78.20;;;;;;5010573;28;20442;-75
2021/09/29 05:57:21;;;;;;;1.58;0.40;;;20.20;78.20;;;;;;5011027;28;20540;-76
2021/09/29 05:59:48;;;;;;;0.70;0.40;;;20.20;78.20;;;;;;5025643;28;20117;-76
2021/09/29 06:02:13;;;;;;;1.67;0.35;;;20.20;78.20;;;;;;5010970;28;20044;-76
2021/09/29 06:04:41;;;;;;;0.75;0.20;;;20.20;78.20;;;;;;5010129;28;20479;-76
2021/09/29 06:07:09;;;;;;;1.52;0.38;;;20.20;78.20;;;;;;5011013;28;20044;-75
2021/09/29 06:09:36;;;;;;;1.63;0.38;;;20.20;78.20;;;;;;5010318;28;20030;-75
2021/09/29 06:12:03;;;;;;;1.85;0.50;;;20.20;78.20;;;;;;4991620;28;20046;-75
2021/09/29 06:14:28;;;;;;;1.50;0.50;;;20.20;78.20;;;;;;4991330;28;20543;-76
2021/09/29 06:17:00;;;;;;;1.00;0.43;;;20.20;78.20;;;;;;5008040;28;20109;-76
2021/09/29 06:19:26;;;;;;;3.63;0.57;;;20.20;78.30;;;;;;5011018;28;20041;-74
2021/09/29 06:21:51;;;;;;;2.78;0.60;;;20.20;79.00;;;;;;5011239;28;20026;-75
2021/09/29 06:24:17;;;;;;;1.20;0.47;;;20.20;78.60;;;;;;5009896;28;20080;-76
2021/09/29 06:26:43;;;;;;;2.35;0.75;;;20.20;78.80;;;;;;5010450;28;20065;-77
2021/09/29 06:29:08;;;;;;;3.40;0.60;;;20.20;79.10;;;;;;5010438;28;20025;-77
2021/09/29 06:31:34;;;;;;;7.28;4.25;;;20.20;79.20;;;;;;5010529;28;20073;-76
2021/09/29 06:34:00;;;;;;;8.38;1.67;;;20.20;79.30;;;;;;5010058;28;20022;-81
2021/09/29 06:36:25;;;;;;;30.40;11.85;;;20.20;79.70;;;;;;5010296;28;20033;-79
2021/09/29 06:38:51;;;;;;;10.05;3.08;;;20.20;80.40;;;;;;5009462;28;20408;-78
2021/09/29 06:41:17;;;;;;;11.75;5.35;;;20.20;80.60;;;;;;5010682;28;20101;-78
2021/09/29 06:43:42;;;;;;;10.40;4.85;;;20.20;80.70;;;;;;5010700;28;20160;-79
2021/09/29 06:46:08;;;;;;;9.50;4.50;;;20.20;81.00;;;;;;5012166;28;20037;-78
2021/09/29 06:48:33;;;;;;;7.45;3.90;;;20.20;81.20;;;;;;5013314;28;20046;-78
2021/09/29 06:50:59;;;;;;;8.52;3.92;;;20.20;81.10;;;;;;5013185;28;20033;-78
2021/09/29 06:53:25;;;;;;;6.82;3.38;;;20.20;81.20;;;;;;5012977;28;20040;-76
2021/09/29 06:55:51;;;;;;;7.82;3.33;;;20.30;81.20;;;;;;5014276;28;20496;-76
2021/09/29 06:58:17;;;;;;;6.00;2.88;;;20.20;81.00;;;;;;5012928;28;20034;-77
2021/09/29 07:00:43;;;;;;;8.00;2.78;;;20.30;81.20;;;;;;5012053;28;20561;-78
2021/09/29 07:03:09;;;;;;;7.05;2.65;;;20.30;81.00;;;;;;5012397;28;20053;-78
2021/09/29 07:05:35;;;;;;;4.85;2.28;;;20.30;80.90;;;;;;5021806;28;20040;-78
2021/09/29 07:08:01;;;;;;;10.15;2.38;;;20.30;81.60;;;;;;5032391;28;20112;-78
2021/09/29 07:10:29;;;;;;;9.45;2.25;;;20.20;80.80;;;;;;5033536;28;20080;-77
2021/09/29 07:12:57;;;;;;;4.85;2.50;;;20.20;80.60;;;;;;5033657;28;20040;-78
2021/09/29 07:15:23;;;;;;;4.72;1.90;;;20.20;80.60;;;;;;5033570;28;20436;-78
2021/09/29 07:17:51;;;;;;;4.95;1.83;;;20.20;80.60;;;;;;5033081;28;20029;-78
2021/09/29 07:20:17;;;;;;;7.68;2.08;;;20.20;80.50;;;;;;5033343;28;20029;-78
2021/09/29 07:22:43;;;;;;;4.88;1.77;;;20.30;80.50;;;;;;5033340;28;20026;-78
2021/09/29 07:25:09;;;;;;;3.15;1.75;;;20.30;80.50;;;;;;5033401;28;20541;-78
2021/09/29 07:27:35;;;;;;;3.20;1.40;;;20.30;80.40;;;;;;5032891;28;20026;-78
2021/09/29 07:30:01;;;;;;;6.47;1.60;;;20.20;80.30;;;;;;5033306;28;20033;-78
2021/09/29 07:32:27;;;;;;;4.20;1.65;;;20.30;80.40;;;;;;5033091;28;20025;-78
2021/09/29 07:34:52;;;;;;;3.67;1.55;;;20.20;80.20;;;;;;5033497;28;20037;-78
2021/09/29 07:37:18;;;;;;;6.32;1.70;;;20.20;80.10;;;;;;5033313;28;20049;-78
2021/09/29 07:39:46;;;;;;;4.38;1.20;;;20.20;80.10;;;;;;5032883;28;20482;-78
2021/09/29 07:42:12;;;;;;;7.22;1.58;;;20.20;80.00;;;;;;5033284;28;20036;-77
2021/09/29 07:44:38;;;;;;;4.38;1.50;;;20.20;80.00;;;;;;5032762;28;20027;-77
2021/09/29 07:47:03;;;;;;;3.92;0.90;;;20.20;79.90;;;;;;5032813;28;20033;-78
2021/09/29 07:49:29;;;;;;;6.55;1.23;;;20.30;79.90;;;;;;5032805;28;20128;-78
2021/09/29 07:51:57;;;;;;;5.85;1.33;;;20.20;79.80;;;;;;5033218;28;20022;-78
2021/09/29 07:54:25;;;;;;;4.22;1.33;;;20.20;79.70;;;;;;5033224;28;20021;-77
2021/09/29 07:56:51;;;;;;;4.22;0.95;;;20.20;79.60;;;;;;5032856;28;20044;-78
2021/09/29 07:59:17;;;;;;;6.28;1.05;;;20.30;79.70;;;;;;5064896;28;20069;-78
2021/09/29 08:01:42;;;;;;;3.95;0.80;;;20.20;79.60;;;;;;5032273;28;20040;-79
2021/09/29 08:04:08;;;;;;;3.78;1.00;;;20.20;79.50;;;;;;5032482;28;20595;-78
2021/09/29 08:06:35;;;;;;;7.72;0.93;;;20.30;79.60;;;;;;5047673;28;20041;-78
2021/09/29 08:09:01;;;;;;;2.30;0.80;;;20.20;79.40;;;;;;5032836;28;20087;-78
2021/09/29 08:11:26;;;;;;;2.78;0.80;;;20.20;79.40;;;;;;5032286;28;20034;-78
2021/09/29 08:13:52;;;;;;;4.88;0.90;;;20.20;80.10;;;;;;5032771;28;20422;-78
2021/09/29 08:16:18;;;;;;;2.10;0.80;;;20.20;79.40;;;;;;5032555;28;20485;-78
2021/09/29 08:18:43;;;;;;;1.95;0.80;;;20.30;79.40;;;;;;5063940;28;20040;-77
2021/09/29 08:21:14;;;;;;;2.33;0.80;;;20.20;79.30;;;;;;5032335;28;20028;-78
2021/09/29 08:23:41;;;;;;;2.83;0.65;;;20.30;79.30;;;;;;5032182;28;20029;-79
2021/09/29 08:31:11;;;;;;;3.30;0.65;;;20.20;79.10;;;;;;5032397;28;20108;-78
2021/09/29 08:38:48;;;;;;;2.00;0.70;;;20.20;79.00;;;;;;5031821;28;20029;-78
2021/09/29 08:49:19;;;;;;;3.00;0.70;;;20.20;78.90;;;;;;5012679;28;20041;-75
2021/09/29 08:54:35;;;;;;;2.08;0.75;;;20.20;78.80;;;;;;5031741;28;20407;-78
2021/09/29 09:16:47;;;;;;;1.33;0.47;;;20.30;78.50;;;;;;5031222;28;20080;-78
2021/09/29 09:19:14;;;;;;;1.45;0.60;;;20.30;78.40;;;;;;5029480;28;20039;-78
2021/09/29 09:21:52;;;;;;;1.35;0.50;;;20.30;78.40;;;;;;5031156;28;20517;-78
2021/09/29 09:24:24;;;;;;;1.80;0.50;;;20.30;78.40;;;;;;5031219;28;20025;-78
2021/09/29 09:27:08;;;;;;;3.97;0.63;;;20.30;78.30;;;;;;5031070;28;20028;-78
2021/09/29 09:29:52;;;;;;;1.63;0.77;;;20.30;78.20;;;;;;5108817;27;20392;-79
2021/09/29 09:32:22;;;;;;;1.45;0.45;;;20.30;78.10;;;;;;5108935;28;20042;-79
2021/09/29 09:34:58;;;;;;;1.77;0.70;;;20.30;78.20;;;;;;5108692;28;20095;-79
2021/09/29 09:37:29;;;;;;;2.47;0.75;;;20.30;78.10;;;;;;5109220;28;20031;-79
2021/09/29 09:40:05;;;;;;;2.85;0.93;;;20.30;78.10;;;;;;5109260;28;20032;-79
2021/09/29 09:42:40;;;;;;;1.33;0.43;;;20.30;78.00;;;;;;5108633;28;20031;-78
2021/09/29 09:45:06;;;;;;;2.17;0.50;;;20.30;77.90;;;;;;5108740;28;20418;-79
2021/09/29 09:47:38;;;;;;;0.80;0.30;;;20.30;77.80;;;;;;5108461;28;20483;-78
2021/09/29 09:50:04;;;;;;;1.75;0.60;;;20.30;77.80;;;;;;5108536;28;20547;-79
2021/09/29 09:52:36;;;;;;;0.85;0.45;;;20.30;77.70;;;;;;5108202;28;20399;-79
2021/09/29 09:55:13;;;;;;;1.65;0.65;;;20.30;77.70;;;;;;5108482;28;20024;-77
2021/09/29 09:57:41;;;;;;;0.55;0.40;;;20.30;77.70;;;;;;5108415;28;20107;-77
2021/09/29 10:00:10;;;;;;;2.45;0.50;;;20.30;77.60;;;;;;5108383;28;20085;-77
2021/09/29 10:02:48;;;;;;;2.67;0.47;;;20.30;77.50;;;;;;5108234;28;20020;-77
2021/09/29 10:05:16;;;;;;;1.17;0.30;;;20.30;77.50;;;;;;5108243;28;20030;-78
2021/09/29 10:07:44;;;;;;;2.08;0.60;;;20.30;77.40;;;;;;5108259;28;20085;-77
2021/09/29 10:10:20;;;;;;;1.45;0.52;;;20.30;77.30;;;;;;5107096;28;20036;-76
2021/09/29 10:24:12;;;;;;;2.22;0.50;;;20.40;76.90;;;;;;5107193;28;20024;-77
2021/09/29 10:26:37;;;;;;;2.15;0.47;;;20.40;76.80;;;;;;5107730;28;20036;-79
2021/09/29 10:29:08;;;;;;;0.93;0.30;;;20.40;76.70;;;;;;5107865;28;20089;-78
2021/09/29 10:31:50;;;;;;;4.30;0.80;;;20.40;76.60;;;;;;5107786;28;20540;-77
2021/09/29 10:34:37;;;;;;;2.67;0.55;;;20.40;76.50;;;;;;5107797;28;20452;-77
2021/09/29 11:31:35;;;;;;;0.82;0.43;;;20.70;73.50;;;;;;5093414;28;20097;-79
2021/09/29 11:36:51;;;;;;;1.52;0.50;;;20.70;73.40;;;;;;5092918;28;20023;-79
2021/09/29 12:12:17;;;;;;;0.70;0.30;;;21.00;72.30;;;;;;5092398;28;20452;-78
2021/09/29 12:14:49;;;;;;;1.75;0.45;;;21.00;72.20;;;;;;5107616;28;20473;-78
2021/09/29 12:17:22;;;;;;;2.58;0.82;;;21.00;72.20;;;;;;5092236;28;20036;-79
2021/09/29 12:19:55;;;;;;;1.55;0.43;;;21.10;72.00;;;;;;5107938;28;20031;-78
2021/09/29 12:22:23;;;;;;;2.05;0.40;;;21.20;71.70;;;;;;5107972;28;20027;-78
2021/09/29 12:24:59;;;;;;;2.35;0.70;;;21.20;71.60;;;;;;5091623;28;20030;-79
2021/09/29 12:27:31;;;;;;;;;;;21.20;71.50;;;;;;5108633;28;20429;-78
2021/09/29 12:29:57;;;;;;;0.75;0.30;;;21.20;71.30;;;;;;5092151;28;19916;-79
2021/09/29 12:37:39;;;;;;;1.85;0.60;;;21.30;71.20;;;;;;5091955;28;20055;-78
2021/09/29 12:40:15;;;;;;;1.08;0.40;;;21.30;71.20;;;;;;5091957;28;20069;-79
2021/09/29 12:42:42;;;;;;;1.33;0.30;;;21.30;71.10;;;;;;5091714;28;20037;-77
2021/09/29 12:45:09;;;;;;;1.30;0.52;;;21.30;71.00;;;;;;5091835;28;20020;-77
2021/09/29 12:47:39;;;;;;;1.08;0.40;;;21.30;70.70;;;;;;5091400;28;20491;-77
2021/09/29 12:50:17;;;;;;;0.60;0.30;;;21.40;70.60;;;;;;5092036;28;20027;-78
2021/09/29 12:52:54;;;;;;;0.82;0.38;;;21.40;70.50;;;;;;5091528;28;20031;-78
2021/09/29 12:55:22;;;;;;;0.63;0.30;;;21.40;70.50;;;;;;5091486;28;20024;-77
2021/09/29 12:57:48;;;;;;;1.20;0.30;;;21.40;70.50;;;;;;5091341;28;20051;-77
2021/09/29 13:00:14;;;;;;;2.60;0.40;;;21.40;70.50;;;;;;5091570;28;20484;-78
2021/09/29 13:02:41;;;;;;;2.10;0.43;;;21.40;70.20;;;;;;5091060;28;20055;-78
2021/09/29 13:05:07;;;;;;;0.43;0.30;;;21.40;70.10;;;;;;5091515;28;20016;-78
2021/09/29 13:07:33;;;;;;;0.88;0.40;;;21.40;70.10;;;;;;5106672;28;20028;-76
2021/09/29 13:09:58;;;;;;;0.88;0.30;;;21.40;70.20;;;;;;5091134;28;20457;-78
2021/09/29 13:12:24;;;;;;;1.33;0.30;;;21.40;70.00;;;;;;5091348;28;20016;-78
2021/09/29 13:14:49;;;;;;;0.68;0.35;;;21.50;69.90;;;;;;5106796;28;20030;-78
2021/09/29 13:17:15;;;;;;;1.10;0.40;;;21.50;69.60;;;;;;5091280;28;20027;-78
2021/09/29 13:20:02;;;;;;;2.67;0.40;;;21.50;69.40;;;;;;5091069;28;20048;-78
2021/09/29 13:22:28;;;;;;;1.20;0.40;;;21.50;69.40;;;;;;5090918;28;20035;-76
2021/09/29 13:35:10;;;;;;;3.45;0.40;;;21.60;69.20;;;;;;5091360;28;20028;-76
2021/09/29 13:38:08;;;;;;;1.10;0.40;;;21.70;69.00;;;;;;5091050;28;20028;-78
2021/09/29 13:40:34;;;;;;;0.57;0.28;;;21.70;68.90;;;;;;5106544;28;20016;-77
2021/09/29 13:43:01;;;;;;;1.65;0.40;;;21.70;68.80;;;;;;5090949;28;20039;-78
2021/09/29 13:45:27;;;;;;;0.90;0.30;;;21.70;68.80;;;;;;5090905;28;20033;-77
2021/09/29 13:47:53;;;;;;;0.75;0.20;;;21.70;68.80;;;;;;5091356;28;20028;-78
2021/09/29 13:50:20;;;;;;;1.58;0.40;;;21.60;68.70;;;;;;5106404;28;20028;-77
2021/09/29 13:52:45;;;;;;;0.90;0.30;;;21.60;68.80;;;;;;5090731;28;20290;-75
2021/09/29 13:55:15;;;;;;;1.23;0.30;;;21.60;68.80;;;;;;5090831;28;20123;-78
2021/09/29 13:58:00;;;;;;;1.38;0.30;;;21.60;68.80;;;;;;5090713;28;20447;-78
2021/09/29 14:30:23;;;;;;;1.70;0.32;;;21.60;68.20;;;;;;5094235;28;20043;-75
2021/09/29 14:32:58;;;;;;;1.63;0.40;;;21.60;68.30;;;;;;5109581;28;20107;-77
2021/09/29 14:35:24;;;;;;;0.50;0.25;;;21.60;68.00;;;;;;5094699;28;20020;-76
2021/09/29 14:37:50;;;;;;;1.55;0.63;;;21.60;67.80;;;;;;5094121;28;20477;-75
2021/09/29 14:40:18;;;;;;;0.73;0.30;;;21.70;67.90;;;;;;5094224;28;20016;-79
2021/09/29 14:42:45;;;;;;;1.33;0.30;;;21.60;68.00;;;;;;5093866;28;20030;-77
2021/09/29 14:45:11;;;;;;;1.20;0.40;;;21.70;67.90;;;;;;5109717;28;20032;-78
2021/09/29 14:47:36;;;;;;;1.95;0.40;;;21.70;67.80;;;;;;5109354;28;20020;-75
2021/09/29 14:50:04;;;;;;;1.25;0.30;;;21.70;67.80;;;;;;5109544;28;20059;-76
2021/09/29 14:52:30;;;;;;;1.88;0.40;;;21.70;67.70;;;;;;5093402;28;20024;-78
2021/09/29 14:54:55;;;;;;;1.33;0.50;;;21.70;67.70;;;;;;5094288;28;20429;-78
2021/09/29 14:57:21;;;;;;;2.30;0.50;;;21.70;67.60;;;;;;5094157;28;20517;-77
2021/09/29 14:59:47;;;;;;;1.55;0.38;;;21.70;67.50;;;;;;5093444;28;20016;-78
2021/09/29 15:02:14;;;;;;;0.90;0.30;;;21.70;67.40;;;;;;5093854;28;20472;-76
2021/09/29 15:04:40;;;;;;;0.70;0.30;;;21.70;67.50;;;;;;5093498;28;20028;-76
2021/09/29 15:07:06;;;;;;;1.08;0.35;;;21.70;67.70;;;;;;5093394;28;20055;-78
2021/09/29 15:09:32;;;;;;;1.48;0.30;;;21.70;67.70;;;;;;5093295;28;20079;-77
2021/09/29 15:11:58;;;;;;;1.00;0.30;;;21.70;67.60;;;;;;5093587;28;20028;-78
2021/09/29 15:14:49;;;;;;;1.60;0.40;;;21.70;67.60;;;;;;5093829;28;20025;-79
2021/09/29 15:17:26;;;;;;;;;;;21.70;67.60;;;;;;5093554;28;20101;-78
2021/09/29 15:20:08;;;;;;;1.30;0.35;;;21.70;67.50;;;;;;5093515;28;19935;-78
2021/09/29 15:22:44;;;;;;;1.77;0.68;;;21.70;67.70;;;;;;5093035;28;20384;-78
2021/09/29 15:55:08;;;;;;;1.60;0.30;;;21.60;67.70;;;;;;5091788;28;20043;-78
2021/09/29 15:57:45;;;;;;;1.73;0.40;;;21.60;67.80;;;;;;5092441;28;20407;-78
2021/09/29 16:03:10;;;;;;;0.83;0.30;;;21.60;68.00;;;;;;5092733;28;20027;-79
2021/09/29 16:09:12;;;;;;;1.10;0.30;;;21.60;67.80;;;;;;5092517;28;20554;-78
2021/09/29 16:24:01;;;;;;;1.05;0.30;;;21.60;66.70;;;;;;5091741;28;20020;-76
2021/09/29 16:32:24;;;;;;;4.15;0.38;;;21.60;66.80;;;;;;5090771;28;19942;-76
2021/09/29 16:34:46;;;;;;;3.35;0.68;;;21.60;67.20;;;;;;5077522;28;20936;-80
2021/09/29 16:37:13;;;;;;;2.88;0.30;;;21.60;67.30;;;;;;5078565;28;20039;-76
2021/09/29 16:39:39;;;;;;;4.65;0.50;;;21.50;67.30;;;;;;5091346;28;20059;-77
2021/09/29 16:42:05;;;;;;;1.42;0.43;;;21.50;67.00;;;;;;5090505;28;20372;-78
2021/09/29 16:44:31;;;;;;;0.95;0.47;;;21.50;67.70;;;;;;5091196;28;20024;-76
2021/09/29 16:46:57;;;;;;;8.77;0.45;;;21.50;67.90;;;;;;5091433;28;20105;-78
2021/09/29 16:49:25;;;;;;;2.53;0.40;;;21.50;67.80;;;;;;5091931;28;20032;-77
2021/09/29 16:52:02;;;;;;;6.25;0.77;;;21.50;67.50;;;;;;5090929;28;20090;-77